Terminal Aerodrome Forecast
Issued by NWS

Home | Current Version | Previous Version | Text Only | Print | Product List | Glossary On
Versions: 1 2 3 4 5 6 7 8 9 10 11 12 13 14 15 16 17
488
FTUS43 KEAX 101120
TAFSTJ
TAF
KSTJ 101120Z 1012/1112 17008KT P6SM SCT050 OVC070
      TEMPO 1012/1014 6SM -SN BKN050
     FM101700 18011KT P6SM SCT100
     FM110200 06007KT P6SM BKN040=

USA.gov is the U.S. government's official web portal to all federal, state and local government web resources and services.